Terminal Aerodrome Forecast
Issued by NWS

Home | Current Version | Previous Version | Text Only | Print | Product List | Glossary On
Versions: 1 2 3 4 5 6 7 8 9 10 11 12 13 14 15 16 17 18 19 20 21 22 23 24 25 26 27 28 29 30 31 32 33 34 35 36 37 38 39 40 41
000
FTPQ31 PGUM 272300 RRA
TAFPQ
TAF

PGRO 272352Z 2800/2824 26011KT 6SM -RA SCT016 BKN040 OVC080
      TEMPO 2800/2804 3SM +SHRA BKN014 OVC030
     FM280400 26011KT P6SM VCSH FEW016 SCT040 BKN100=

USA.gov is the U.S. government's official web portal to all federal, state and local government web resources and services.